Terminal Aerodrome Forecast
Issued by NWS

Home | Current Version | Previous Version | Text Only | Print | Product List | Glossary On
Versions: 1 2 3 4 5 6 7 8 9 10 11 12 13 14 15 16 17 18 19 20 21
000
FTUS43 KGRR 302341 AAC
TAFMKG
TAF AMD
KMKG 302341Z 3100/3124 VRB03KT P6SM SCT011 BKN040
      TEMPO 3100/3101 BKN011
     FM310300 32004KT P6SM OVC025
     FM310900 02006KT P6SM BKN040
     FM311600 34007KT P6SM SCT040
     FM311900 33011KT P6SM SCT040=

USA.gov is the U.S. government's official web portal to all federal, state and local government web resources and services.